sensor_id;sensor_type;location;lat;lon;timestamp;temperature;humidity
15426;DHT22;7812;50.072;7.036;2023-05-10T00:01:58;12.60;99.90
15426;DHT22;7812;50.072;7.036;2023-05-10T00:04:24;12.60;99.90
15426;DHT22;7812;50.072;7.036;2023-05-10T00:06:53;12.60;99.90
15426;DHT22;7812;50.072;7.036;2023-05-10T00:09:18;12.60;99.90
15426;DHT22;7812;50.072;7.036;2023-05-10T00:11:44;12.60;99.90
15426;DHT22;7812;50.072;7.036;2023-05-10T00:14:10;12.50;99.90
15426;DHT22;7812;50.072;7.036;2023-05-10T00:16:36;12.50;99.90
15426;DHT22;7812;50.072;7.036;2023-05-10T00:19:02;12.40;99.90
15426;DHT22;7812;50.072;7.036;2023-05-10T00:21:27;12.50;99.90
15426;DHT22;7812;50.072;7.036;2023-05-10T00:23:54;12.50;99.90
15426;DHT22;7812;50.072;7.036;2023-05-10T00:26:21;12.60;99.90
15426;DHT22;7812;50.072;7.036;2023-05-10T00:28:47;12.50;99.90
15426;DHT22;7812;50.072;7.036;2023-05-10T00:31:12;12.60;99.90
15426;DHT22;7812;50.072;7.036;2023-05-10T00:33:39;12.60;99.90
15426;DHT22;7812;50.072;7.036;2023-05-10T00:36:05;12.50;99.90
15426;DHT22;7812;50.072;7.036;2023-05-10T00:38:33;12.60;99.90
15426;DHT22;7812;50.072;7.036;2023-05-10T00:40:58;12.60;99.90
15426;DHT22;7812;50.072;7.036;2023-05-10T00:43:24;12.60;99.90
15426;DHT22;7812;50.072;7.036;2023-05-10T00:45:49;12.50;99.90
15426;DHT22;7812;50.072;7.036;2023-05-10T00:48:15;12.50;99.90
15426;DHT22;7812;50.072;7.036;2023-05-10T00:50:41;12.50;99.90
15426;DHT22;7812;50.072;7.036;2023-05-10T00:53:07;12.50;99.90
15426;DHT22;7812;50.072;7.036;2023-05-10T00:55:33;12.40;99.90
15426;DHT22;7812;50.072;7.036;2023-05-10T00:58:01;12.40;99.90
15426;DHT22;7812;50.072;7.036;2023-05-10T01:00:27;12.50;99.90
15426;DHT22;7812;50.072;7.036;2023-05-10T01:02:53;12.50;99.90
15426;DHT22;7812;50.072;7.036;2023-05-10T01:05:19;12.40;99.90
15426;DHT22;7812;50.072;7.036;2023-05-10T01:07:45;12.40;99.90
15426;DHT22;7812;50.072;7.036;2023-05-10T01:10:11;12.50;99.90
15426;DHT22;7812;50.072;7.036;2023-05-10T01:12:40;12.60;99.90
15426;DHT22;7812;50.072;7.036;2023-05-10T01:15:08;12.40;99.90
15426;DHT22;7812;50.072;7.036;2023-05-10T01:17:39;12.40;99.90
15426;DHT22;7812;50.072;7.036;2023-05-10T01:20:07;12.30;99.90
15426;DHT22;7812;50.072;7.036;2023-05-10T01:34:09;12.50;99.90
15426;DHT22;7812;50.072;7.036;2023-05-10T01:36:46;12.50;99.90
15426;DHT22;7812;50.072;7.036;2023-05-10T01:39:36;12.50;99.90
15426;DHT22;7812;50.072;7.036;2023-05-10T01:47:31;12.60;99.90
15426;DHT22;7812;50.072;7.036;2023-05-10T01:50:03;12.60;99.90
15426;DHT22;7812;50.072;7.036;2023-05-10T01:52:37;12.60;99.90
15426;DHT22;7812;50.072;7.036;2023-05-10T01:55:09;12.60;99.90
15426;DHT22;7812;50.072;7.036;2023-05-10T01:57:37;12.60;99.90
15426;DHT22;7812;50.072;7.036;2023-05-10T02:00:07;12.60;99.90
15426;DHT22;7812;50.072;7.036;2023-05-10T02:02:39;12.60;99.90
15426;DHT22;7812;50.072;7.036;2023-05-10T02:05:08;12.60;99.90
15426;DHT22;7812;50.072;7.036;2023-05-10T02:07:36;12.60;99.90
15426;DHT22;7812;50.072;7.036;2023-05-10T02:10:07;12.70;99.90
15426;DHT22;7812;50.072;7.036;2023-05-10T02:12:39;12.70;99.90
15426;DHT22;7812;50.072;7.036;2023-05-10T02:15:07;12.70;99.90
15426;DHT22;7812;50.072;7.036;2023-05-10T02:17:35;12.70;99.90
15426;DHT22;7812;50.072;7.036;2023-05-10T02:20:03;12.80;99.90
15426;DHT22;7812;50.072;7.036;2023-05-10T02:22:30;12.80;99.90
15426;DHT22;7812;50.072;7.036;2023-05-10T02:24:58;12.80;99.90
15426;DHT22;7812;50.072;7.036;2023-05-10T02:27:25;12.70;99.90
15426;DHT22;7812;50.072;7.036;2023-05-10T02:29:53;12.70;99.90
15426;DHT22;7812;50.072;7.036;2023-05-10T02:32:21;12.70;99.90
15426;DHT22;7812;50.072;7.036;2023-05-10T02:34:48;12.70;99.90
15426;DHT22;7812;50.072;7.036;2023-05-10T02:37:19;12.70;99.90
15426;DHT22;7812;50.072;7.036;2023-05-10T02:39:49;12.70;99.90
15426;DHT22;7812;50.072;7.036;2023-05-10T02:42:18;12.70;99.90
15426;DHT22;7812;50.072;7.036;2023-05-10T02:44:49;12.70;99.90
15426;DHT22;7812;50.072;7.036;2023-05-10T02:47:16;12.70;99.90
15426;DHT22;7812;50.072;7.036;2023-05-10T02:49:43;12.70;99.90
15426;DHT22;7812;50.072;7.036;2023-05-10T02:52:09;12.70;99.90
15426;DHT22;7812;50.072;7.036;2023-05-10T02:54:41;12.70;99.90
15426;DHT22;7812;50.072;7.036;2023-05-10T02:57:13;12.60;99.90
15426;DHT22;7812;50.072;7.036;2023-05-10T02:59:40;12.60;99.90
15426;DHT22;7812;50.072;7.036;2023-05-10T03:02:08;12.60;99.90
15426;DHT22;7812;50.072;7.036;2023-05-10T03:04:34;12.50;99.90
15426;DHT22;7812;50.072;7.036;2023-05-10T03:07:00;12.50;99.90
15426;DHT22;7812;50.072;7.036;2023-05-10T03:09:26;12.50;99.90
15426;DHT22;7812;50.072;7.036;2023-05-10T03:20:08;12.40;99.90
15426;DHT22;7812;50.072;7.036;2023-05-10T03:22:42;12.40;99.90
15426;DHT22;7812;50.072;7.036;2023-05-10T03:25:11;12.40;99.90
15426;DHT22;7812;50.072;7.036;2023-05-10T03:27:40;12.30;99.90
15426;DHT22;7812;50.072;7.036;2023-05-10T03:30:11;12.30;99.90
15426;DHT22;7812;50.072;7.036;2023-05-10T03:32:37;12.30;99.90
15426;DHT22;7812;50.072;7.036;2023-05-10T03:35:11;12.20;99.90
15426;DHT22;7812;50.072;7.036;2023-05-10T03:37:37;12.10;99.90
15426;DHT22;7812;50.072;7.036;2023-05-10T03:40:03;12.10;99.90
15426;DHT22;7812;50.072;7.036;2023-05-10T03:42:29;12.10;99.90
15426;DHT22;7812;50.072;7.036;2023-05-10T03:44:55;12.10;99.90
15426;DHT22;7812;50.072;7.036;2023-05-10T03:47:21;12.10;99.90
15426;DHT22;7812;50.072;7.036;2023-05-10T03:49:46;12.10;99.90
15426;DHT22;7812;50.072;7.036;2023-05-10T03:52:12;12.10;99.90
15426;DHT22;7812;50.072;7.036;2023-05-10T03:54:38;12.10;99.90
15426;DHT22;7812;50.072;7.036;2023-05-10T03:57:04;12.00;99.90
15426;DHT22;7812;50.072;7.036;2023-05-10T03:59:29;12.00;99.90
15426;DHT22;7812;50.072;7.036;2023-05-10T04:01:55;12.00;99.90
15426;DHT22;7812;50.072;7.036;2023-05-10T04:04:22;12.00;99.90
15426;DHT22;7812;50.072;7.036;2023-05-10T04:06:48;12.00;99.90
15426;DHT22;7812;50.072;7.036;2023-05-10T04:09:14;12.00;99.90
15426;DHT22;7812;50.072;7.036;2023-05-10T04:11:40;12.00;99.90
15426;DHT22;7812;50.072;7.036;2023-05-10T04:14:05;12.00;99.90
15426;DHT22;7812;50.072;7.036;2023-05-10T04:16:31;12.10;99.90
15426;DHT22;7812;50.072;7.036;2023-05-10T04:18:57;12.10;99.90
15426;DHT22;7812;50.072;7.036;2023-05-10T04:21:22;12.10;99.90
15426;DHT22;7812;50.072;7.036;2023-05-10T04:23:48;12.10;99.90
15426;DHT22;7812;50.072;7.036;2023-05-10T04:26:14;12.10;99.90
15426;DHT22;7812;50.072;7.036;2023-05-10T04:28:40;12.10;99.90
15426;DHT22;7812;50.072;7.036;2023-05-10T04:31:07;12.10;99.90
15426;DHT22;7812;50.072;7.036;2023-05-10T04:33:33;12.10;99.90
15426;DHT22;7812;50.072;7.036;2023-05-10T04:36:00;12.20;99.90
15426;DHT22;7812;50.072;7.036;2023-05-10T04:38:26;12.20;99.90
15426;DHT22;7812;50.072;7.036;2023-05-10T04:40:52;12.30;99.90
15426;DHT22;7812;50.072;7.036;2023-05-10T04:43:18;12.20;99.90
15426;DHT22;7812;50.072;7.036;2023-05-10T04:45:44;12.30;99.90
15426;DHT22;7812;50.072;7.036;2023-05-10T04:48:10;12.40;99.90
15426;DHT22;7812;50.072;7.036;2023-05-10T04:50:35;12.40;99.90
15426;DHT22;7812;50.072;7.036;2023-05-10T04:53:01;12.40;99.90
15426;DHT22;7812;50.072;7.036;2023-05-10T04:55:27;12.40;99.90
15426;DHT22;7812;50.072;7.036;2023-05-10T04:57:53;12.40;99.90
15426;DHT22;7812;50.072;7.036;2023-05-10T05:00:22;12.40;99.90
15426;DHT22;7812;50.072;7.036;2023-05-10T05:02:47;12.50;99.90
15426;DHT22;7812;50.072;7.036;2023-05-10T05:05:13;12.50;99.90
15426;DHT22;7812;50.072;7.036;2023-05-10T05:07:39;12.40;99.90
15426;DHT22;7812;50.072;7.036;2023-05-10T05:10:06;12.30;99.90
15426;DHT22;7812;50.072;7.036;2023-05-10T05:12:32;12.30;99.90
15426;DHT22;7812;50.072;7.036;2023-05-10T05:14:58;12.30;99.90
15426;DHT22;7812;50.072;7.036;2023-05-10T05:17:23;12.40;99.90
15426;DHT22;7812;50.072;7.036;2023-05-10T05:19:49;12.50;99.90
15426;DHT22;7812;50.072;7.036;2023-05-10T05:22:15;12.40;99.90
15426;DHT22;7812;50.072;7.036;2023-05-10T05:24:41;12.20;99.90
15426;DHT22;7812;50.072;7.036;2023-05-10T05:27:07;12.40;99.90
15426;DHT22;7812;50.072;7.036;2023-05-10T05:29:33;12.70;99.90
15426;DHT22;7812;50.072;7.036;2023-05-10T05:31:58;12.80;99.90
15426;DHT22;7812;50.072;7.036;2023-05-10T05:34:24;13.10;99.90
15426;DHT22;7812;50.072;7.036;2023-05-10T05:36:50;13.50;99.90
15426;DHT22;7812;50.072;7.036;2023-05-10T05:39:16;13.70;99.90
15426;DHT22;7812;50.072;7.036;2023-05-10T05:41:42;13.90;99.90
15426;DHT22;7812;50.072;7.036;2023-05-10T05:44:08;13.90;99.90
15426;DHT22;7812;50.072;7.036;2023-05-10T05:46:33;13.80;99.90
15426;DHT22;7812;50.072;7.036;2023-05-10T05:48:59;13.60;99.90
15426;DHT22;7812;50.072;7.036;2023-05-10T05:51:25;13.50;99.90
15426;DHT22;7812;50.072;7.036;2023-05-10T05:53:50;13.70;99.90
15426;DHT22;7812;50.072;7.036;2023-05-10T05:56:16;13.70;99.90
15426;DHT22;7812;50.072;7.036;2023-05-10T05:58:43;13.70;99.90
15426;DHT22;7812;50.072;7.036;2023-05-10T06:01:10;13.70;99.90
15426;DHT22;7812;50.072;7.036;2023-05-10T06:03:35;13.60;99.90
15426;DHT22;7812;50.072;7.036;2023-05-10T06:06:01;13.60;99.90
15426;DHT22;7812;50.072;7.036;2023-05-10T06:08:26;13.50;99.90
15426;DHT22;7812;50.072;7.036;2023-05-10T06:10:52;13.40;99.90
15426;DHT22;7812;50.072;7.036;2023-05-10T06:13:18;13.40;99.90
15426;DHT22;7812;50.072;7.036;2023-05-10T06:15:43;13.40;99.90
15426;DHT22;7812;50.072;7.036;2023-05-10T06:18:09;13.40;99.90
15426;DHT22;7812;50.072;7.036;2023-05-10T06:20:34;13.50;99.90
15426;DHT22;7812;50.072;7.036;2023-05-10T06:23:00;13.50;99.90
15426;DHT22;7812;50.072;7.036;2023-05-10T06:25:26;13.50;99.90
15426;DHT22;7812;50.072;7.036;2023-05-10T06:27:51;13.40;99.90
15426;DHT22;7812;50.072;7.036;2023-05-10T06:30:22;13.50;99.90
15426;DHT22;7812;50.072;7.036;2023-05-10T06:32:52;13.50;99.90
15426;DHT22;7812;50.072;7.036;2023-05-10T06:35:18;13.50;99.90
15426;DHT22;7812;50.072;7.036;2023-05-10T06:37:45;13.50;99.90
15426;DHT22;7812;50.072;7.036;2023-05-10T06:40:12;13.40;99.90
15426;DHT22;7812;50.072;7.036;2023-05-10T06:42:37;13.40;99.90
15426;DHT22;7812;50.072;7.036;2023-05-10T06:45:03;13.30;99.90
15426;DHT22;7812;50.072;7.036;2023-05-10T06:47:30;13.20;99.90
15426;DHT22;7812;50.072;7.036;2023-05-10T06:49:58;13.10;99.90
15426;DHT22;7812;50.072;7.036;2023-05-10T06:52:24;13.10;99.90
15426;DHT22;7812;50.072;7.036;2023-05-10T06:54:49;13.10;99.90
15426;DHT22;7812;50.072;7.036;2023-05-10T06:57:15;13.10;99.90
15426;DHT22;7812;50.072;7.036;2023-05-10T06:59:41;13.00;99.90
15426;DHT22;7812;50.072;7.036;2023-05-10T07:02:06;13.00;99.90
15426;DHT22;7812;50.072;7.036;2023-05-10T07:04:32;13.00;99.90
15426;DHT22;7812;50.072;7.036;2023-05-10T07:06:57;13.10;99.90
15426;DHT22;7812;50.072;7.036;2023-05-10T07:09:23;13.20;99.90
15426;DHT22;7812;50.072;7.036;2023-05-10T07:11:49;13.10;99.90
15426;DHT22;7812;50.072;7.036;2023-05-10T07:14:15;12.80;99.90
15426;DHT22;7812;50.072;7.036;2023-05-10T07:16:41;12.50;99.90
15426;DHT22;7812;50.072;7.036;2023-05-10T07:19:06;12.20;99.90
15426;DHT22;7812;50.072;7.036;2023-05-10T07:21:32;12.10;99.90
15426;DHT22;7812;50.072;7.036;2023-05-10T07:23:58;12.10;99.90
15426;DHT22;7812;50.072;7.036;2023-05-10T07:26:25;12.00;99.90
15426;DHT22;7812;50.072;7.036;2023-05-10T07:28:50;12.10;99.90
15426;DHT22;7812;50.072;7.036;2023-05-10T07:31:16;12.10;99.90
15426;DHT22;7812;50.072;7.036;2023-05-10T07:33:43;12.10;99.90
15426;DHT22;7812;50.072;7.036;2023-05-10T07:36:11;12.20;99.90
15426;DHT22;7812;50.072;7.036;2023-05-10T07:38:36;12.30;99.90
15426;DHT22;7812;50.072;7.036;2023-05-10T07:41:02;12.40;99.90
15426;DHT22;7812;50.072;7.036;2023-05-10T07:43:27;12.60;99.90
15426;DHT22;7812;50.072;7.036;2023-05-10T07:45:53;12.90;99.90
15426;DHT22;7812;50.072;7.036;2023-05-10T07:48:19;13.00;99.90
15426;DHT22;7812;50.072;7.036;2023-05-10T07:50:44;13.20;99.90
15426;DHT22;7812;50.072;7.036;2023-05-10T07:53:10;13.40;99.90
15426;DHT22;7812;50.072;7.036;2023-05-10T07:55:36;13.70;99.90
15426;DHT22;7812;50.072;7.036;2023-05-10T07:58:02;13.90;99.90
15426;DHT22;7812;50.072;7.036;2023-05-10T08:00:28;13.90;99.90
15426;DHT22;7812;50.072;7.036;2023-05-10T08:02:53;13.90;99.90
15426;DHT22;7812;50.072;7.036;2023-05-10T08:05:20;14.10;99.90
15426;DHT22;7812;50.072;7.036;2023-05-10T08:07:46;14.50;99.90
15426;DHT22;7812;50.072;7.036;2023-05-10T08:10:11;14.40;99.90
15426;DHT22;7812;50.072;7.036;2023-05-10T08:12:37;14.30;99.90
15426;DHT22;7812;50.072;7.036;2023-05-10T08:15:04;14.20;99.90
15426;DHT22;7812;50.072;7.036;2023-05-10T08:17:30;13.90;99.90
15426;DHT22;7812;50.072;7.036;2023-05-10T08:19:56;13.70;99.90
15426;DHT22;7812;50.072;7.036;2023-05-10T08:22:21;13.50;99.90
15426;DHT22;7812;50.072;7.036;2023-05-10T08:24:48;13.30;99.90
15426;DHT22;7812;50.072;7.036;2023-05-10T08:27:14;13.20;99.90
15426;DHT22;7812;50.072;7.036;2023-05-10T08:29:40;13.30;99.90
15426;DHT22;7812;50.072;7.036;2023-05-10T08:32:06;13.40;99.90
15426;DHT22;7812;50.072;7.036;2023-05-10T08:34:31;13.60;99.90
15426;DHT22;7812;50.072;7.036;2023-05-10T08:36:57;13.80;99.90
15426;DHT22;7812;50.072;7.036;2023-05-10T08:39:23;13.90;99.90
15426;DHT22;7812;50.072;7.036;2023-05-10T08:41:51;14.00;99.90
15426;DHT22;7812;50.072;7.036;2023-05-10T08:44:18;14.10;99.90
15426;DHT22;7812;50.072;7.036;2023-05-10T08:46:46;14.40;99.90
15426;DHT22;7812;50.072;7.036;2023-05-10T08:49:20;14.70;99.90
15426;DHT22;7812;50.072;7.036;2023-05-10T08:51:52;14.80;99.90
15426;DHT22;7812;50.072;7.036;2023-05-10T08:54:21;15.00;99.90
15426;DHT22;7812;50.072;7.036;2023-05-10T08:56:47;15.00;99.90
15426;DHT22;7812;50.072;7.036;2023-05-10T08:59:13;14.80;99.90
15426;DHT22;7812;50.072;7.036;2023-05-10T09:01:40;14.80;99.90
15426;DHT22;7812;50.072;7.036;2023-05-10T09:04:07;14.80;99.90
15426;DHT22;7812;50.072;7.036;2023-05-10T09:06:33;14.80;99.90
15426;DHT22;7812;50.072;7.036;2023-05-10T09:08:59;14.70;99.90
15426;DHT22;7812;50.072;7.036;2023-05-10T09:11:25;14.70;99.90
15426;DHT22;7812;50.072;7.036;2023-05-10T09:13:55;15.00;99.90
15426;DHT22;7812;50.072;7.036;2023-05-10T09:16:21;15.50;99.90
15426;DHT22;7812;50.072;7.036;2023-05-10T09:18:47;15.90;99.90
15426;DHT22;7812;50.072;7.036;2023-05-10T09:21:13;16.30;99.90
15426;DHT22;7812;50.072;7.036;2023-05-10T09:23:43;17.60;99.90
15426;DHT22;7812;50.072;7.036;2023-05-10T09:26:08;18.70;99.90
15426;DHT22;7812;50.072;7.036;2023-05-10T09:28:52;18.90;99.90
15426;DHT22;7812;50.072;7.036;2023-05-10T09:31:19;20.00;99.90
15426;DHT22;7812;50.072;7.036;2023-05-10T09:33:46;21.60;99.90
15426;DHT22;7812;50.072;7.036;2023-05-10T09:36:12;21.30;99.90
15426;DHT22;7812;50.072;7.036;2023-05-10T09:38:51;19.80;99.90
15426;DHT22;7812;50.072;7.036;2023-05-10T09:41:24;18.60;99.90
15426;DHT22;7812;50.072;7.036;2023-05-10T09:43:55;18.80;99.90
15426;DHT22;7812;50.072;7.036;2023-05-10T09:46:21;20.10;99.90
15426;DHT22;7812;50.072;7.036;2023-05-10T09:48:48;20.20;99.90
15426;DHT22;7812;50.072;7.036;2023-05-10T09:51:24;18.30;99.90
15426;DHT22;7812;50.072;7.036;2023-05-10T09:54:09;18.10;99.90
15426;DHT22;7812;50.072;7.036;2023-05-10T09:56:38;18.70;99.90
15426;DHT22;7812;50.072;7.036;2023-05-10T09:59:06;18.90;99.90
15426;DHT22;7812;50.072;7.036;2023-05-10T10:01:33;18.70;99.90
15426;DHT22;7812;50.072;7.036;2023-05-10T10:04:05;18.60;99.90
15426;DHT22;7812;50.072;7.036;2023-05-10T10:06:35;18.30;99.90
15426;DHT22;7812;50.072;7.036;2023-05-10T10:09:02;18.50;99.90
15426;DHT22;7812;50.072;7.036;2023-05-10T10:11:28;17.90;99.90
15426;DHT22;7812;50.072;7.036;2023-05-10T10:13:54;17.30;99.90
15426;DHT22;7812;50.072;7.036;2023-05-10T10:16:20;16.20;99.90
15426;DHT22;7812;50.072;7.036;2023-05-10T10:18:47;16.00;99.90
15426;DHT22;7812;50.072;7.036;2023-05-10T10:21:15;15.90;99.90
15426;DHT22;7812;50.072;7.036;2023-05-10T10:23:41;15.70;99.90
15426;DHT22;7812;50.072;7.036;2023-05-10T10:26:06;15.40;99.90
15426;DHT22;7812;50.072;7.036;2023-05-10T10:34:10;14.80;99.90
15426;DHT22;7812;50.072;7.036;2023-05-10T10:36:45;14.60;99.90
15426;DHT22;7812;50.072;7.036;2023-05-10T10:39:11;14.30;99.90
15426;DHT22;7812;50.072;7.036;2023-05-10T10:44:36;14.00;99.90
15426;DHT22;7812;50.072;7.036;2023-05-10T10:47:10;13.90;99.90
15426;DHT22;7812;50.072;7.036;2023-05-10T10:52:37;14.10;99.90
15426;DHT22;7812;50.072;7.036;2023-05-10T10:57:48;14.60;99.90
15426;DHT22;7812;50.072;7.036;2023-05-10T11:08:00;16.60;99.90
15426;DHT22;7812;50.072;7.036;2023-05-10T11:10:27;17.20;99.90
15426;DHT22;7812;50.072;7.036;2023-05-10T11:12:53;16.70;99.90
15426;DHT22;7812;50.072;7.036;2023-05-10T11:15:37;16.30;99.90
15426;DHT22;7812;50.072;7.036;2023-05-10T11:21:01;16.30;99.90
15426;DHT22;7812;50.072;7.036;2023-05-10T11:26:09;16.00;99.90
15426;DHT22;7812;50.072;7.036;2023-05-10T11:28:41;15.80;99.90
15426;DHT22;7812;50.072;7.036;2023-05-10T11:31:06;15.40;99.90
15426;DHT22;7812;50.072;7.036;2023-05-10T11:33:43;14.80;99.90
15426;DHT22;7812;50.072;7.036;2023-05-10T11:36:15;14.10;99.90
15426;DHT22;7812;50.072;7.036;2023-05-10T11:38:40;13.60;99.90
15426;DHT22;7812;50.072;7.036;2023-05-10T11:41:09;13.50;99.90
15426;DHT22;7812;50.072;7.036;2023-05-10T11:43:35;13.70;99.90
15426;DHT22;7812;50.072;7.036;2023-05-10T11:46:08;14.00;99.90
15426;DHT22;7812;50.072;7.036;2023-05-10T11:48:36;14.40;99.90
15426;DHT22;7812;50.072;7.036;2023-05-10T11:51:02;14.70;99.90
15426;DHT22;7812;50.072;7.036;2023-05-10T11:53:32;14.80;99.90
15426;DHT22;7812;50.072;7.036;2023-05-10T11:56:10;14.90;99.90
15426;DHT22;7812;50.072;7.036;2023-05-10T11:58:37;14.90;99.90
15426;DHT22;7812;50.072;7.036;2023-05-10T12:01:05;15.00;99.90
15426;DHT22;7812;50.072;7.036;2023-05-10T12:03:35;15.10;99.90
15426;DHT22;7812;50.072;7.036;2023-05-10T12:06:02;15.30;99.90
15426;DHT22;7812;50.072;7.036;2023-05-10T12:08:29;15.40;99.90
15426;DHT22;7812;50.072;7.036;2023-05-10T12:11:09;15.20;99.90
15426;DHT22;7812;50.072;7.036;2023-05-10T12:13:41;14.90;99.90
15426;DHT22;7812;50.072;7.036;2023-05-10T12:18:40;14.40;99.90
15426;DHT22;7812;50.072;7.036;2023-05-10T12:21:10;14.10;99.90
15426;DHT22;7812;50.072;7.036;2023-05-10T12:23:36;13.90;99.90
15426;DHT22;7812;50.072;7.036;2023-05-10T12:26:03;13.80;99.90
15426;DHT22;7812;50.072;7.036;2023-05-10T12:28:31;13.60;99.90
15426;DHT22;7812;50.072;7.036;2023-05-10T12:30:58;13.60;99.90
15426;DHT22;7812;50.072;7.036;2023-05-10T12:33:24;13.60;99.90
15426;DHT22;7812;50.072;7.036;2023-05-10T12:35:53;13.90;99.90
15426;DHT22;7812;50.072;7.036;2023-05-10T12:38:48;14.30;99.90
15426;DHT22;7812;50.072;7.036;2023-05-10T12:41:16;14.60;99.90
15426;DHT22;7812;50.072;7.036;2023-05-10T12:43:42;15.00;99.90
15426;DHT22;7812;50.072;7.036;2023-05-10T12:46:13;15.20;99.90
15426;DHT22;7812;50.072;7.036;2023-05-10T12:48:40;15.80;99.90
15426;DHT22;7812;50.072;7.036;2023-05-10T12:51:07;16.20;99.90
15426;DHT22;7812;50.072;7.036;2023-05-10T12:53:39;16.50;99.90
15426;DHT22;7812;50.072;7.036;2023-05-10T12:56:05;16.70;99.90
15426;DHT22;7812;50.072;7.036;2023-05-10T12:58:32;17.00;99.90
15426;DHT22;7812;50.072;7.036;2023-05-10T13:01:01;17.20;99.90
15426;DHT22;7812;50.072;7.036;2023-05-10T13:03:27;17.00;99.90
15426;DHT22;7812;50.072;7.036;2023-05-10T13:05:53;16.90;99.90
15426;DHT22;7812;50.072;7.036;2023-05-10T13:08:20;16.90;99.90
15426;DHT22;7812;50.072;7.036;2023-05-10T13:10:46;16.70;99.90
15426;DHT22;7812;50.072;7.036;2023-05-10T13:13:11;16.50;99.90
15426;DHT22;7812;50.072;7.036;2023-05-10T13:15:37;16.50;99.90
15426;DHT22;7812;50.072;7.036;2023-05-10T13:18:03;16.60;99.90
15426;DHT22;7812;50.072;7.036;2023-05-10T13:20:29;16.80;99.90
15426;DHT22;7812;50.072;7.036;2023-05-10T13:22:55;17.00;99.90
15426;DHT22;7812;50.072;7.036;2023-05-10T13:25:21;16.80;99.90
15426;DHT22;7812;50.072;7.036;2023-05-10T13:27:46;16.50;99.90
15426;DHT22;7812;50.072;7.036;2023-05-10T13:30:12;16.50;99.90
15426;DHT22;7812;50.072;7.036;2023-05-10T13:32:39;16.40;99.90
15426;DHT22;7812;50.072;7.036;2023-05-10T13:35:05;16.50;99.90
15426;DHT22;7812;50.072;7.036;2023-05-10T13:37:31;16.50;99.90
15426;DHT22;7812;50.072;7.036;2023-05-10T13:40:00;16.80;99.90
15426;DHT22;7812;50.072;7.036;2023-05-10T13:42:26;17.30;99.90
15426;DHT22;7812;50.072;7.036;2023-05-10T13:44:52;17.40;99.90
15426;DHT22;7812;50.072;7.036;2023-05-10T13:47:18;17.70;99.90
15426;DHT22;7812;50.072;7.036;2023-05-10T13:49:44;17.20;99.90
15426;DHT22;7812;50.072;7.036;2023-05-10T13:52:09;17.10;99.90
15426;DHT22;7812;50.072;7.036;2023-05-10T13:54:38;17.00;99.90
15426;DHT22;7812;50.072;7.036;2023-05-10T13:57:05;16.70;99.90
15426;DHT22;7812;50.072;7.036;2023-05-10T13:59:31;16.60;99.90
15426;DHT22;7812;50.072;7.036;2023-05-10T14:02:01;17.00;99.90
15426;DHT22;7812;50.072;7.036;2023-05-10T14:04:29;16.80;99.90
15426;DHT22;7812;50.072;7.036;2023-05-10T14:06:56;16.70;99.90
15426;DHT22;7812;50.072;7.036;2023-05-10T14:09:21;17.10;99.90
15426;DHT22;7812;50.072;7.036;2023-05-10T14:11:47;17.10;99.90
15426;DHT22;7812;50.072;7.036;2023-05-10T14:14:13;17.30;99.90
15426;DHT22;7812;50.072;7.036;2023-05-10T14:16:43;17.70;99.90
15426;DHT22;7812;50.072;7.036;2023-05-10T14:19:09;17.60;99.90
15426;DHT22;7812;50.072;7.036;2023-05-10T14:21:34;17.50;99.90
15426;DHT22;7812;50.072;7.036;2023-05-10T14:24:00;17.70;99.90
15426;DHT22;7812;50.072;7.036;2023-05-10T14:26:26;17.50;99.90
15426;DHT22;7812;50.072;7.036;2023-05-10T14:28:52;17.60;99.90
15426;DHT22;7812;50.072;7.036;2023-05-10T14:31:18;17.50;99.90
15426;DHT22;7812;50.072;7.036;2023-05-10T14:33:46;17.10;99.90
15426;DHT22;7812;50.072;7.036;2023-05-10T14:36:12;16.90;99.90
15426;DHT22;7812;50.072;7.036;2023-05-10T14:38:39;16.90;99.90
15426;DHT22;7812;50.072;7.036;2023-05-10T14:41:04;17.20;99.90
15426;DHT22;7812;50.072;7.036;2023-05-10T14:43:30;17.30;99.90
15426;DHT22;7812;50.072;7.036;2023-05-10T14:45:56;17.20;99.90
15426;DHT22;7812;50.072;7.036;2023-05-10T14:48:22;17.20;99.90
15426;DHT22;7812;50.072;7.036;2023-05-10T14:50:47;17.20;99.90
15426;DHT22;7812;50.072;7.036;2023-05-10T14:53:15;17.50;99.90
15426;DHT22;7812;50.072;7.036;2023-05-10T14:55:40;17.50;99.90
15426;DHT22;7812;50.072;7.036;2023-05-10T14:58:06;17.30;99.90
15426;DHT22;7812;50.072;7.036;2023-05-10T15:00:33;17.20;99.90
15426;DHT22;7812;50.072;7.036;2023-05-10T15:02:59;17.00;99.90
15426;DHT22;7812;50.072;7.036;2023-05-10T15:05:24;16.80;99.90
15426;DHT22;7812;50.072;7.036;2023-05-10T15:07:50;16.70;99.90
15426;DHT22;7812;50.072;7.036;2023-05-10T15:10:16;16.90;99.90
15426;DHT22;7812;50.072;7.036;2023-05-10T15:12:41;17.00;99.90
15426;DHT22;7812;50.072;7.036;2023-05-10T15:15:07;16.70;99.90
15426;DHT22;7812;50.072;7.036;2023-05-10T15:17:33;16.80;99.90
15426;DHT22;7812;50.072;7.036;2023-05-10T15:19:59;16.90;99.90
15426;DHT22;7812;50.072;7.036;2023-05-10T15:22:25;17.00;99.90
15426;DHT22;7812;50.072;7.036;2023-05-10T15:24:53;17.00;99.90
15426;DHT22;7812;50.072;7.036;2023-05-10T15:27:19;16.70;99.90
15426;DHT22;7812;50.072;7.036;2023-05-10T15:29:45;16.60;99.90
15426;DHT22;7812;50.072;7.036;2023-05-10T15:32:10;16.50;99.90
15426;DHT22;7812;50.072;7.036;2023-05-10T15:34:36;16.70;99.90
15426;DHT22;7812;50.072;7.036;2023-05-10T15:37:02;16.80;99.90
15426;DHT22;7812;50.072;7.036;2023-05-10T15:39:28;17.00;99.90
15426;DHT22;7812;50.072;7.036;2023-05-10T15:41:53;17.10;99.90
15426;DHT22;7812;50.072;7.036;2023-05-10T15:44:19;16.80;99.90
15426;DHT22;7812;50.072;7.036;2023-05-10T15:46:44;16.80;99.90
15426;DHT22;7812;50.072;7.036;2023-05-10T15:49:10;16.80;99.90
15426;DHT22;7812;50.072;7.036;2023-05-10T15:51:37;16.90;99.90
15426;DHT22;7812;50.072;7.036;2023-05-10T15:54:03;17.10;99.90
15426;DHT22;7812;50.072;7.036;2023-05-10T15:56:31;16.90;99.90
15426;DHT22;7812;50.072;7.036;2023-05-10T15:58:58;16.80;99.90
15426;DHT22;7812;50.072;7.036;2023-05-10T16:01:23;17.10;99.90
15426;DHT22;7812;50.072;7.036;2023-05-10T16:03:49;17.30;99.90
15426;DHT22;7812;50.072;7.036;2023-05-10T16:06:15;17.20;99.90
15426;DHT22;7812;50.072;7.036;2023-05-10T16:08:40;17.30;99.90
15426;DHT22;7812;50.072;7.036;2023-05-10T16:11:06;17.30;99.90
15426;DHT22;7812;50.072;7.036;2023-05-10T16:13:33;17.50;99.90
15426;DHT22;7812;50.072;7.036;2023-05-10T16:15:59;17.70;99.90
15426;DHT22;7812;50.072;7.036;2023-05-10T16:18:26;17.70;99.90
15426;DHT22;7812;50.072;7.036;2023-05-10T16:20:52;17.70;99.90
15426;DHT22;7812;50.072;7.036;2023-05-10T16:23:18;17.60;99.90
15426;DHT22;7812;50.072;7.036;2023-05-10T16:25:44;17.60;99.90
15426;DHT22;7812;50.072;7.036;2023-05-10T16:28:09;17.50;99.90
15426;DHT22;7812;50.072;7.036;2023-05-10T16:30:35;17.20;99.90
15426;DHT22;7812;50.072;7.036;2023-05-10T16:33:02;17.30;99.90
15426;DHT22;7812;50.072;7.036;2023-05-10T16:35:28;17.20;99.90
15426;DHT22;7812;50.072;7.036;2023-05-10T16:37:54;17.10;99.90
15426;DHT22;7812;50.072;7.036;2023-05-10T16:40:20;17.20;99.90